Weather at La Cabana Airport

Public forecast

Using degrees Celsius for public forecast. Weather courtesy of forecast.io.

Closest aviation weather report (METAR) to La Cabana Airport

Report is more than 6 hours old.

Closest report is Vanguardia Airport, 16.7 nm (30.9 km) WSW. Retrieved 2020/11/11 11:00 UTC (18 days ago):

SKVV 111100Z 00000KT 9999 SCT020 BKN090 22/21 A2993

Closest aviation forecast (TAF) to La Cabana Airport

Closest forecast is El Dorado International Airport, 52.3 nm (96.9 km) WNW. Retrieved 2020/11/29 12:00 UTC (4 hours ago):

TAF SKBO 291030Z 2912/3012 05004KT 9999 SCT020 SCT090 BECMG 2916/2918 29010KT TEMPO 2919/2923 5000 TSRA SCT015CB BECMG 3000/3002 VRB02KT TEMPO 3010/3012 4000 BR SCT010 TX21/2918Z TN10/3010Z